createdAt,value
2022-12-19T00:01:38.029Z,-4.12
2022-12-19T00:04:09.125Z,-4.08
2022-12-19T00:06:37.831Z,-4.14
2022-12-19T00:09:06.083Z,-4.09
2022-12-19T00:11:33.885Z,-4.21
2022-12-19T00:14:01.036Z,-4.20
2022-12-19T00:16:29.895Z,-4.21
2022-12-19T00:18:59.748Z,-4.23
2022-12-19T00:21:34.695Z,-4.22
2022-12-19T00:24:09.848Z,-4.29
2022-12-19T00:26:49.818Z,-4.21
2022-12-19T00:29:17.252Z,-4.20
2022-12-19T00:31:45.697Z,-4.26
2022-12-19T00:34:15.107Z,-4.21
2022-12-19T00:36:42.523Z,-4.27
2022-12-19T00:39:10.559Z,-4.28
2022-12-19T00:41:41.599Z,-4.18
2022-12-19T00:44:16.601Z,-4.25
2022-12-19T00:46:50.259Z,-4.22
2022-12-19T00:49:21.025Z,-4.22
2022-12-19T00:51:48.171Z,-4.28
2022-12-19T00:54:15.432Z,-4.19
2022-12-19T00:56:43.150Z,-4.27
2022-12-19T00:59:10.676Z,-4.29
2022-12-19T01:01:40.425Z,-4.30
2022-12-19T01:04:28.093Z,-4.35
2022-12-19T01:07:02.715Z,-4.33
2022-12-19T01:09:32.143Z,-4.41
2022-12-19T01:12:18.263Z,-4.30
2022-12-19T01:14:45.582Z,-4.39
2022-12-19T01:17:13.145Z,-4.40
2022-12-19T01:19:43.961Z,-4.34
2022-12-19T01:22:13.506Z,-4.40
2022-12-19T01:24:41.333Z,-4.37
2022-12-19T01:27:08.771Z,-4.35
2022-12-19T01:29:38.892Z,-4.39
2022-12-19T01:32:20.729Z,-4.41
2022-12-19T01:34:48.177Z,-4.37
2022-12-19T01:37:18.432Z,-4.43
2022-12-19T01:39:46.126Z,-4.38
2022-12-19T01:42:19.597Z,-4.30
2022-12-19T01:45:04.830Z,-4.18
2022-12-19T01:47:33.751Z,-4.06
2022-12-19T01:50:01.957Z,-4.08
2022-12-19T01:52:30.168Z,-3.92
2022-12-19T01:54:57.661Z,-3.96
2022-12-19T01:57:26.073Z,-4.07
2022-12-19T01:59:56.768Z,-3.97
2022-12-19T02:02:34.175Z,-4.01
2022-12-19T02:05:01.920Z,-3.97
2022-12-19T02:07:29.104Z,-4.06
2022-12-19T02:09:58.685Z,-4.02
2022-12-19T02:12:26.886Z,-4.04
2022-12-19T02:14:56.001Z,-3.96
2022-12-19T02:17:52.811Z,-3.83
2022-12-19T02:20:51.537Z,-3.75
2022-12-19T02:23:43.166Z,-3.80
2022-12-19T02:26:22.686Z,-3.87
2022-12-19T02:29:12.300Z,-3.80
2022-12-19T02:32:01.333Z,-3.77
2022-12-19T02:34:41.323Z,-3.69
2022-12-19T02:37:21.373Z,-3.66
2022-12-19T02:40:10.943Z,-3.70
2022-12-19T02:42:40.088Z,-3.67
2022-12-19T02:45:10.266Z,-3.61
2022-12-19T02:47:39.376Z,-3.61
2022-12-19T02:50:07.667Z,-3.52
2022-12-19T02:52:35.090Z,-3.43
2022-12-19T02:55:09.504Z,-3.53
2022-12-19T02:57:43.237Z,-3.41
2022-12-19T03:00:14.686Z,-3.37
2022-12-19T03:03:18.189Z,-3.42
2022-12-19T03:05:54.986Z,-3.39
2022-12-19T03:09:02.439Z,-3.21
2022-12-19T03:11:35.458Z,-3.19
2022-12-19T03:14:07.393Z,-3.22
2022-12-19T03:16:36.674Z,-3.30
2022-12-19T03:19:09.874Z,-3.25
2022-12-19T03:21:43.614Z,-3.32
2022-12-19T03:24:12.302Z,-3.16
2022-12-19T03:26:47.162Z,-3.19
2022-12-19T03:29:23.002Z,-3.12
2022-12-19T03:31:51.727Z,-3.01
2022-12-19T03:34:23.610Z,-2.96
2022-12-19T03:36:55.562Z,-3.09
2022-12-19T03:39:23.667Z,-2.97
2022-12-19T03:42:10.504Z,-2.92
2022-12-19T03:44:40.515Z,-2.81
2022-12-19T03:47:28.306Z,-2.77
2022-12-19T03:49:55.783Z,-2.67
2022-12-19T03:52:30.030Z,-2.70
2022-12-19T03:55:16.861Z,-2.76
2022-12-19T03:58:20.999Z,-2.75
2022-12-19T04:00:48.809Z,-2.58
2022-12-19T04:03:17.597Z,-2.67
2022-12-19T04:05:45.992Z,-2.76
2022-12-19T04:08:13.466Z,-2.66
2022-12-19T04:11:01.268Z,-2.60
2022-12-19T04:13:34.685Z,-2.62
2022-12-19T04:16:08.923Z,-2.61
2022-12-19T04:18:36.635Z,-2.55
2022-12-19T04:21:23.942Z,-2.55
2022-12-19T04:23:55.326Z,-2.50
2022-12-19T04:26:23.635Z,-2.58
2022-12-19T04:28:55.551Z,-2.50
2022-12-19T04:31:23.601Z,-2.44
2022-12-19T04:33:50.763Z,-2.46
2022-12-19T04:36:17.872Z,-2.39
2022-12-19T04:38:45.601Z,-2.42
2022-12-19T04:41:12.644Z,-2.33
2022-12-19T04:43:39.696Z,-2.33
2022-12-19T04:46:07.175Z,-2.32
2022-12-19T04:48:37.613Z,-2.34
2022-12-19T04:51:04.712Z,-2.32
2022-12-19T04:53:32.639Z,-2.41
2022-12-19T04:56:04.660Z,-2.56
2022-12-19T04:58:32.441Z,-2.53
2022-12-19T05:01:04.524Z,-2.48
2022-12-19T05:03:33.143Z,-2.43
2022-12-19T05:06:09.976Z,-2.39
2022-12-19T05:08:38.993Z,-2.46
2022-12-19T05:11:07.140Z,-2.37
2022-12-19T05:13:34.321Z,-2.35
2022-12-19T05:16:06.649Z,-2.42
2022-12-19T05:18:34.353Z,-2.39
2022-12-19T05:21:01.657Z,-2.30
2022-12-19T05:23:28.891Z,-2.23
2022-12-19T05:25:59.750Z,-2.18
2022-12-19T05:28:27.408Z,-2.27
2022-12-19T05:31:15.567Z,-2.21
2022-12-19T05:33:43.177Z,-2.28
2022-12-19T05:36:11.560Z,-2.26
2022-12-19T05:38:38.698Z,-2.22
2022-12-19T05:41:11.996Z,-2.23
2022-12-19T05:43:42.679Z,-2.23
2022-12-19T05:46:10.078Z,-2.16
2022-12-19T05:48:38.250Z,-2.16
2022-12-19T05:51:05.413Z,-2.17
2022-12-19T05:53:35.157Z,-2.21
2022-12-19T05:56:14.059Z,-2.12
2022-12-19T05:58:42.084Z,-2.14
2022-12-19T06:01:11.667Z,-2.04
2022-12-19T06:03:39.127Z,-2.01
2022-12-19T06:06:09.555Z,-2.17
2022-12-19T06:08:36.847Z,-2.10
2022-12-19T06:11:05.869Z,-2.11
2022-12-19T06:13:33.703Z,-2.14
2022-12-19T06:16:02.557Z,-2.03
2022-12-19T06:18:30.992Z,-2.09
2022-12-19T06:21:06.517Z,-2.02
2022-12-19T06:23:35.717Z,-2.20
2022-12-19T06:26:05.070Z,-2.06
2022-12-19T06:28:33.011Z,-2.25
2022-12-19T06:31:02.291Z,-2.27
2022-12-19T06:33:30.154Z,-2.08
2022-12-19T06:36:02.233Z,-2.07
2022-12-19T06:38:30.244Z,-2.10
2022-12-19T06:41:16.055Z,-2.06
2022-12-19T06:43:43.466Z,-2.04
2022-12-19T06:46:10.900Z,-2.13
2022-12-19T06:48:38.159Z,-2.08
2022-12-19T06:51:05.719Z,-2.14
2022-12-19T06:53:32.809Z,-2.18
2022-12-19T06:56:00.240Z,-2.21
2022-12-19T06:58:27.608Z,-2.14
2022-12-19T07:00:54.688Z,-2.22
2022-12-19T07:03:29.861Z,-2.25
2022-12-19T07:05:57.302Z,-2.17
2022-12-19T07:08:24.371Z,-2.11
2022-12-19T07:10:54.239Z,-2.10
2022-12-19T07:13:21.797Z,-2.09
2022-12-19T07:15:49.753Z,-1.98
2022-12-19T07:18:16.895Z,-2.15
2022-12-19T07:20:45.368Z,-1.99
2022-12-19T07:23:15.029Z,-2.06
2022-12-19T07:25:42.240Z,-1.99
2022-12-19T07:28:09.702Z,-2.12
2022-12-19T07:30:36.868Z,-1.85
2022-12-19T07:33:04.020Z,-1.94
2022-12-19T07:35:31.405Z,-2.02
2022-12-19T07:38:02.787Z,-1.96
2022-12-19T07:40:30.251Z,-1.90
2022-12-19T07:43:01.534Z,-1.98
2022-12-19T07:45:29.076Z,-2.01
2022-12-19T07:47:59.270Z,-2.17
2022-12-19T07:50:26.654Z,-2.29
2022-12-19T07:52:53.734Z,-1.99
2022-12-19T07:55:20.859Z,-2.13
2022-12-19T07:57:48.235Z,-2.18
2022-12-19T08:00:15.894Z,-2.20
2022-12-19T08:02:43.927Z,-2.13
2022-12-19T08:05:11.970Z,-2.10
2022-12-19T08:07:39.155Z,-1.93
2022-12-19T08:10:07.030Z,-1.74
2022-12-19T08:12:34.338Z,-1.86
2022-12-19T08:15:01.419Z,-1.98
2022-12-19T08:17:28.901Z,-1.98
2022-12-19T08:19:56.112Z,-1.72
2022-12-19T08:22:23.399Z,-1.69
2022-12-19T08:24:50.809Z,-1.52
2022-12-19T08:27:17.919Z,-1.75
2022-12-19T08:29:45.108Z,-1.69
2022-12-19T08:32:18.681Z,-1.62
2022-12-19T08:34:48.265Z,-1.56
2022-12-19T08:37:15.624Z,-1.50
2022-12-19T08:39:42.719Z,-1.63
2022-12-19T08:42:09.841Z,-1.43
2022-12-19T08:44:37.232Z,-1.73
2022-12-19T08:47:04.718Z,-1.77
2022-12-19T08:49:31.873Z,-1.84
2022-12-19T08:51:59.308Z,-1.79
2022-12-19T08:54:27.149Z,-1.71
2022-12-19T08:56:54.405Z,-1.55
2022-12-19T08:59:30.792Z,-1.49
2022-12-19T09:02:00.749Z,-1.51
2022-12-19T09:05:46.500Z,-1.55
2022-12-19T09:07:18.984Z,-1.62
2022-12-19T09:09:46.451Z,-1.95
2022-12-19T09:12:14.761Z,-1.93
2022-12-19T09:14:41.785Z,-1.93
2022-12-19T09:17:09.248Z,-1.82
2022-12-19T09:19:36.377Z,-1.84
2022-12-19T09:22:03.631Z,-1.87
2022-12-19T09:24:30.992Z,-1.90
2022-12-19T09:26:58.067Z,-1.77
2022-12-19T09:29:25.393Z,-1.69
2022-12-19T09:31:56.115Z,-1.76
2022-12-19T09:34:36.786Z,-1.67
2022-12-19T09:37:10.357Z,-1.79
2022-12-19T09:39:46.215Z,-1.88
2022-12-19T09:42:30.565Z,-1.73
2022-12-19T09:45:14.473Z,-1.59
2022-12-19T09:47:47.567Z,-1.56
2022-12-19T09:50:55.556Z,-1.75
2022-12-19T09:53:59.820Z,-1.48
2022-12-19T09:56:29.912Z,-1.39
2022-12-19T09:59:45.973Z,-1.16
2022-12-19T10:02:23.295Z,-1.12
2022-12-19T10:05:05.970Z,-1.18
2022-12-19T10:08:07.204Z,-1.15
2022-12-19T10:12:40.313Z,-1.08
2022-12-19T10:13:35.027Z,-0.95
2022-12-19T10:16:27.451Z,-0.76
2022-12-19T10:19:00.840Z,-0.69
2022-12-19T10:22:17.883Z,-0.72
2022-12-19T10:25:09.290Z,-0.78
2022-12-19T10:28:15.928Z,-0.73
2022-12-19T10:30:48.036Z,-0.91
2022-12-19T10:33:21.246Z,-0.85
2022-12-19T10:35:54.293Z,-0.73
2022-12-19T10:38:49.283Z,-0.91
2022-12-19T10:41:25.001Z,-0.57
2022-12-19T10:44:07.247Z,-0.43
2022-12-19T10:46:41.146Z,-0.41
2022-12-19T10:49:20.141Z,-0.37
2022-12-19T10:52:03.459Z,-0.38
2022-12-19T10:54:41.134Z,-0.31
2022-12-19T10:57:18.663Z,-0.46
2022-12-19T10:59:59.036Z,-0.59
2022-12-19T11:02:38.426Z,-0.36
2022-12-19T11:05:21.509Z,-0.28
2022-12-19T11:08:14.601Z,-0.08
2022-12-19T11:12:56.834Z,-0.10
2022-12-19T11:19:08.201Z,-0.07
2022-12-19T11:22:59.583Z,-0.18
2022-12-19T11:29:33.927Z,-0.11
2022-12-19T11:29:44.094Z,0.08
2022-12-19T11:30:39.206Z,-0.27
2022-12-19T11:30:41.837Z,-0.11
2022-12-19T11:34:21.266Z,0.04
2022-12-19T11:36:53.119Z,-0.19
2022-12-19T11:39:32.106Z,-0.23
2022-12-19T11:42:02.127Z,-0.19
2022-12-19T11:44:35.077Z,-0.03
2022-12-19T11:47:18.214Z,-0.24
2022-12-19T11:49:53.832Z,-0.67
2022-12-19T11:53:02.773Z,-0.50
2022-12-19T11:55:38.232Z,-0.46
2022-12-19T11:58:06.079Z,-0.20
2022-12-19T12:00:34.840Z,-0.31
2022-12-19T12:03:31.589Z,-0.41
2022-12-19T12:05:58.764Z,-0.14
2022-12-19T12:10:09.385Z,-0.19
2022-12-19T12:17:02.648Z,-0.07
2022-12-19T12:27:35.941Z,-0.13
2022-12-19T12:27:49.062Z,-0.11
2022-12-19T12:31:20.142Z,0.01
2022-12-19T12:31:38.593Z,-0.11
2022-12-19T12:31:50.264Z,-0.03
2022-12-19T12:35:40.505Z,-0.41
2022-12-19T12:35:47.064Z,-0.02
2022-12-19T12:38:14.796Z,-0.38
2022-12-19T12:40:40.648Z,-0.46
2022-12-19T12:43:26.335Z,-0.46
2022-12-19T12:45:53.929Z,-0.47
2022-12-19T12:48:25.507Z,-0.45
2022-12-19T12:50:55.352Z,-0.42
2022-12-19T12:53:28.756Z,-0.48
2022-12-19T12:55:57.161Z,-0.54
2022-12-19T12:58:42.828Z,-0.47
2022-12-19T13:01:12.714Z,-0.47
2022-12-19T13:03:42.298Z,-0.30
2022-12-19T13:06:36.535Z,-0.38
2022-12-19T13:09:09.161Z,0.01
2022-12-19T13:11:59.523Z,-0.04
2022-12-19T13:14:35.767Z,-0.26
2022-12-19T13:17:07.266Z,-0.41
2022-12-19T13:19:58.924Z,-0.08
2022-12-19T13:22:28.950Z,-0.37
2022-12-19T13:24:57.673Z,-0.29
2022-12-19T13:27:36.079Z,-0.31
2022-12-19T13:30:14.218Z,-0.43
2022-12-19T13:32:41.244Z,-0.41
2022-12-19T13:35:54.326Z,-0.51
2022-12-19T13:39:49.871Z,-0.61
2022-12-19T13:41:45.614Z,-0.56
2022-12-19T13:44:12.988Z,-0.57
2022-12-19T13:46:44.674Z,-0.47
2022-12-19T13:49:19.406Z,-0.62
2022-12-19T13:51:47.936Z,-0.87
2022-12-19T13:54:45.429Z,-0.65
2022-12-19T13:57:25.165Z,-0.76
2022-12-19T14:00:00.464Z,-0.97
2022-12-19T14:02:44.775Z,-0.92
2022-12-19T14:06:14.293Z,-0.94
2022-12-19T14:08:23.598Z,-0.78
2022-12-19T14:11:35.283Z,-0.82
2022-12-19T14:14:10.729Z,-0.92
2022-12-19T14:16:44.686Z,-0.83
2022-12-19T14:19:18.414Z,-0.99
2022-12-19T14:22:04.563Z,-1.01
2022-12-19T14:24:33.056Z,-0.99
2022-12-19T14:28:18.618Z,-1.02
2022-12-19T14:30:31.006Z,-0.95
2022-12-19T14:33:46.388Z,-0.97
2022-12-19T14:36:09.796Z,-1.13
2022-12-19T14:39:24.147Z,-1.17
2022-12-19T14:41:46.969Z,-1.11
2022-12-19T14:51:51.661Z,-1.16
2022-12-19T14:54:13.937Z,-1.25
2022-12-19T14:54:17.042Z,-1.20
2022-12-19T14:54:40.481Z,-1.44
2022-12-19T14:56:11.484Z,-1.50
2022-12-19T14:58:53.361Z,-1.41
2022-12-19T15:01:24.960Z,-1.41
2022-12-19T15:04:53.510Z,-1.59
2022-12-19T15:07:09.518Z,-1.59
2022-12-19T15:11:05.356Z,-1.70
2022-12-19T15:14:46.967Z,-1.94
2022-12-19T15:15:56.354Z,-1.98
2022-12-19T15:18:33.022Z,-2.00
2022-12-19T15:21:02.677Z,-1.87
2022-12-19T15:23:30.444Z,-1.72
2022-12-19T15:26:06.192Z,-1.65
2022-12-19T15:28:47.780Z,-1.76
2022-12-19T15:31:17.713Z,-2.00
2022-12-19T15:34:14.354Z,-1.96
2022-12-19T15:36:32.921Z,-2.05
2022-12-19T15:39:00.309Z,-2.14
2022-12-19T15:41:27.602Z,-2.01
2022-12-19T15:44:04.095Z,-2.08
2022-12-19T15:46:32.694Z,-2.05
2022-12-19T15:48:59.840Z,-2.09
2022-12-19T15:51:26.939Z,-2.15
2022-12-19T15:54:15.541Z,-2.23
2022-12-19T15:56:47.385Z,-1.93
2022-12-19T15:59:47.674Z,-1.86
2022-12-19T16:02:21.730Z,-1.90
2022-12-19T16:04:50.430Z,-2.01
2022-12-19T16:07:22.852Z,-1.91
2022-12-19T16:09:50.272Z,-2.10
2022-12-19T16:12:20.353Z,-1.93
2022-12-19T16:14:56.702Z,-2.00
2022-12-19T16:17:25.458Z,-1.87
2022-12-19T16:19:52.611Z,-2.16
2022-12-19T16:22:24.455Z,-2.34
2022-12-19T16:24:52.785Z,-2.15
2022-12-19T16:27:30.260Z,-2.18
2022-12-19T16:30:02.845Z,-2.22
2022-12-19T16:32:29.935Z,-2.11
2022-12-19T16:34:57.285Z,-2.06
2022-12-19T16:37:31.797Z,-2.00
2022-12-19T16:39:59.769Z,-1.96
2022-12-19T16:42:28.275Z,-1.82
2022-12-19T16:44:55.489Z,-1.82
2022-12-19T16:47:22.913Z,-1.76
2022-12-19T16:49:50.076Z,-1.88
2022-12-19T16:52:17.150Z,-2.07
2022-12-19T16:54:44.539Z,-1.93
2022-12-19T16:57:19.996Z,-2.05
2022-12-19T16:59:48.010Z,-1.98
2022-12-19T17:02:34.094Z,-1.93
2022-12-19T17:05:01.552Z,-1.82
2022-12-19T17:07:29.185Z,-1.76
2022-12-19T17:09:56.235Z,-1.64
2022-12-19T17:12:25.137Z,-1.53
2022-12-19T17:14:52.220Z,-1.62
2022-12-19T17:17:19.275Z,-1.69
2022-12-19T17:19:46.733Z,-1.71
2022-12-19T17:22:15.431Z,-1.70
2022-12-19T17:24:44.045Z,-1.70
2022-12-19T17:27:11.348Z,-1.75
2022-12-19T17:29:38.400Z,-1.76
2022-12-19T17:32:08.993Z,-1.71
2022-12-19T17:34:36.411Z,-1.74
2022-12-19T17:37:05.228Z,-1.81
2022-12-19T17:39:34.527Z,-1.68
2022-12-19T17:42:10.950Z,-1.64
2022-12-19T17:44:37.981Z,-1.59
2022-12-19T17:47:05.495Z,-1.56
2022-12-19T17:49:32.862Z,-1.59
2022-12-19T17:52:00.251Z,-1.51
2022-12-19T17:54:27.617Z,-1.52
2022-12-19T17:56:55.244Z,-1.47
2022-12-19T17:59:22.248Z,-1.63
2022-12-19T18:01:49.950Z,-1.56
2022-12-19T18:04:18.943Z,-1.41
2022-12-19T18:06:46.471Z,-1.47
2022-12-19T18:09:24.185Z,-1.44
2022-12-19T18:11:52.863Z,-1.52
2022-12-19T18:14:20.545Z,-1.53
2022-12-19T18:16:48.158Z,-1.48
2022-12-19T18:19:23.559Z,-1.61
2022-12-19T18:21:50.658Z,-1.54
2022-12-19T18:24:18.054Z,-1.64
2022-12-19T18:26:45.245Z,-1.63
2022-12-19T18:29:12.844Z,-1.65
2022-12-19T18:31:48.187Z,-1.59
2022-12-19T18:34:23.047Z,-1.64
2022-12-19T18:36:51.257Z,-1.60
2022-12-19T18:39:21.392Z,-1.61
2022-12-19T18:41:50.031Z,-1.51
2022-12-19T18:44:17.711Z,-1.48
2022-12-19T18:46:45.468Z,-1.50
2022-12-19T18:49:16.908Z,-1.49
2022-12-19T18:51:44.968Z,-1.47
2022-12-19T18:54:13.666Z,-1.54
2022-12-19T18:56:40.769Z,-1.52
2022-12-19T18:59:09.461Z,-1.51
2022-12-19T19:01:40.157Z,-1.66
2022-12-19T19:04:08.888Z,-1.54
2022-12-19T19:06:38.152Z,-1.51
2022-12-19T19:09:13.135Z,-1.63
2022-12-19T19:11:42.418Z,-1.68
2022-12-19T19:14:09.668Z,-1.69
2022-12-19T19:16:40.164Z,-1.63
2022-12-19T19:19:10.892Z,-1.59
2022-12-19T19:21:38.886Z,-1.58
2022-12-19T19:24:09.252Z,-1.58
2022-12-19T19:26:36.833Z,-1.52
2022-12-19T19:29:04.166Z,-1.52
2022-12-19T19:31:34.457Z,-1.49
2022-12-19T19:34:10.009Z,-1.63
2022-12-19T19:36:40.397Z,-1.70
2022-12-19T19:39:07.753Z,-1.70
2022-12-19T19:41:34.773Z,-1.67
2022-12-19T19:44:01.920Z,-1.68
2022-12-19T19:46:29.456Z,-1.71
2022-12-19T19:48:57.143Z,-1.75
2022-12-19T19:51:24.771Z,-1.73
2022-12-19T19:53:52.156Z,-1.65
2022-12-19T19:56:19.462Z,-1.65
2022-12-19T19:58:46.577Z,-1.64
2022-12-19T20:01:14.397Z,-1.57
2022-12-19T20:03:43.159Z,-1.66
2022-12-19T20:06:11.030Z,-1.63
2022-12-19T20:08:40.222Z,-1.54
2022-12-19T20:11:08.735Z,-1.55
2022-12-19T20:13:36.116Z,-1.51
2022-12-19T20:16:23.474Z,-1.57
2022-12-19T20:18:52.447Z,-1.63
2022-12-19T20:21:20.088Z,-1.59
2022-12-19T20:23:47.343Z,-1.54
2022-12-19T20:26:16.395Z,-1.59
2022-12-19T20:28:49.250Z,-1.53
2022-12-19T20:31:19.626Z,-1.46
2022-12-19T20:33:48.281Z,-1.65
2022-12-19T20:36:16.668Z,-1.49
2022-12-19T20:38:44.182Z,-1.36
2022-12-19T20:41:11.180Z,-1.43
2022-12-19T20:43:38.653Z,-1.56
2022-12-19T20:46:08.592Z,-1.49
2022-12-19T20:48:36.490Z,-1.51
2022-12-19T20:51:05.178Z,-1.45
2022-12-19T20:53:34.815Z,-1.41
2022-12-19T20:56:03.733Z,-1.38
2022-12-19T20:58:33.115Z,-1.32
2022-12-19T21:01:09.355Z,-1.46
2022-12-19T21:03:37.853Z,-1.35
2022-12-19T21:06:05.867Z,-1.45
2022-12-19T21:08:33.529Z,-1.30
2022-12-19T21:11:01.884Z,-1.31
2022-12-19T21:13:29.572Z,-1.29
2022-12-19T21:15:58.734Z,-1.15
2022-12-19T21:18:26.904Z,-1.25
2022-12-19T21:20:54.835Z,-1.25
2022-12-19T21:23:23.138Z,-1.39
2022-12-19T21:25:50.233Z,-1.38
2022-12-19T21:28:17.998Z,-1.36
2022-12-19T21:30:45.308Z,-1.54
2022-12-19T21:33:12.363Z,-1.47
2022-12-19T21:35:39.752Z,-1.38
2022-12-19T21:38:06.814Z,-1.33
2022-12-19T21:40:36.073Z,-1.41
2022-12-19T21:43:11.176Z,-1.35
2022-12-19T21:45:39.190Z,-1.47
2022-12-19T21:48:06.958Z,-1.47
2022-12-19T21:50:34.106Z,-1.43
2022-12-19T21:53:01.246Z,-1.39
2022-12-19T21:55:28.589Z,-1.45
2022-12-19T21:57:55.808Z,-1.53
2022-12-19T22:00:23.068Z,-1.44
2022-12-19T22:03:12.760Z,-1.47
2022-12-19T22:05:38.250Z,-1.35
2022-12-19T22:08:05.653Z,-1.31
2022-12-19T22:10:32.763Z,-1.57
2022-12-19T22:12:59.832Z,-1.66
2022-12-19T22:15:27.174Z,-1.66
2022-12-19T22:17:54.252Z,-1.67
2022-12-19T22:20:21.301Z,-1.68
2022-12-19T22:22:48.655Z,-1.69
2022-12-19T22:25:15.778Z,-1.70
2022-12-19T22:27:42.845Z,-1.72
2022-12-19T22:30:11.349Z,-1.75
2022-12-19T22:32:38.619Z,-1.82
2022-12-19T22:35:06.239Z,-1.89
2022-12-19T22:37:33.642Z,-1.87
2022-12-19T22:40:04.071Z,-1.92
2022-12-19T22:42:31.183Z,-1.97
2022-12-19T22:44:59.318Z,-1.88
2022-12-19T22:47:26.375Z,-1.98
2022-12-19T22:49:53.425Z,-1.97
2022-12-19T22:52:20.880Z,-2.00
2022-12-19T22:54:48.077Z,-2.05
2022-12-19T22:57:15.614Z,-2.20
2022-12-19T22:59:43.033Z,-2.40
2022-12-19T23:02:10.326Z,-2.08
2022-12-19T23:04:37.518Z,-2.29
2022-12-19T23:07:04.872Z,-2.34
2022-12-19T23:09:31.936Z,-2.37
2022-12-19T23:11:59.125Z,-2.33
2022-12-19T23:14:26.524Z,-2.21
2022-12-19T23:16:53.560Z,-2.27
2022-12-19T23:19:20.652Z,-2.23
2022-12-19T23:21:47.942Z,-2.35
2022-12-19T23:24:15.125Z,-2.44
2022-12-19T23:26:42.382Z,-2.33
2022-12-19T23:29:14.098Z,-2.29
2022-12-19T23:31:42.688Z,-2.15
2022-12-19T23:34:10.612Z,-2.18
2022-12-19T23:37:09.512Z,-2.33
2022-12-19T23:39:25.428Z,-2.24
2022-12-19T23:41:52.460Z,-2.16
2022-12-19T23:44:19.633Z,-2.37
2022-12-19T23:46:46.896Z,-2.35
2022-12-19T23:49:14.254Z,-2.34
2022-12-19T23:51:41.263Z,-2.18
2022-12-19T23:54:11.556Z,-2.19
2022-12-19T23:56:38.654Z,-2.14
2022-12-19T23:59:05.674Z,-2.16
